sensor_id;sensor_type;location;lat;lon;timestamp;pressure;altitude;pressure_sealevel;temperature;humidity
62697;BME280;48761;42.680;23.312;2023-03-04T00:00:40;94810.16;;;5.57;88.23
62697;BME280;48761;42.680;23.312;2023-03-04T00:03:07;94802.41;;;5.54;87.99
62697;BME280;48761;42.680;23.312;2023-03-04T00:05:33;94869.56;;;6.00;87.99
62697;BME280;48761;42.680;23.312;2023-03-04T00:07:59;94842.13;;;5.86;87.89
62697;BME280;48761;42.680;23.312;2023-03-04T00:10:25;94831.56;;;5.86;87.21
62697;BME280;48761;42.680;23.312;2023-03-04T00:12:52;94813.41;;;5.62;87.48
62697;BME280;48761;42.680;23.312;2023-03-04T00:15:19;94829.56;;;5.74;87.73
62697;BME280;48761;42.680;23.312;2023-03-04T00:17:45;94805.22;;;5.51;88.17
62697;BME280;48761;42.680;23.312;2023-03-04T00:20:14;94840.94;;;5.74;88.14
62697;BME280;48761;42.680;23.312;2023-03-04T00:22:40;94833.75;;;5.78;88.06
62697;BME280;48761;42.680;23.312;2023-03-04T00:25:09;94782.63;;;5.45;88.30
62697;BME280;48761;42.680;23.312;2023-03-04T00:27:35;94800.56;;;5.38;89.10
62697;BME280;48761;42.680;23.312;2023-03-04T00:30:03;94817.63;;;5.31;89.72
62697;BME280;48761;42.680;23.312;2023-03-04T00:32:29;94790.25;;;5.15;90.29
62697;BME280;48761;42.680;23.312;2023-03-04T00:34:56;94852.69;;;5.51;90.28
62697;BME280;48761;42.680;23.312;2023-03-04T00:37:23;94809.09;;;5.43;90.03
62697;BME280;48761;42.680;23.312;2023-03-04T00:39:49;94792.41;;;5.43;89.50
62697;BME280;48761;42.680;23.312;2023-03-04T00:42:15;94835.91;;;5.69;88.70
62697;BME280;48761;42.680;23.312;2023-03-04T00:44:41;94855.94;;;5.91;88.75
62697;BME280;48761;42.680;23.312;2023-03-04T00:47:07;94846.91;;;5.96;88.59
62697;BME280;48761;42.680;23.312;2023-03-04T00:49:33;94832.19;;;5.91;88.33
62697;BME280;48761;42.680;23.312;2023-03-04T00:51:59;94826.25;;;6.04;87.71
62697;BME280;48761;42.680;23.312;2023-03-04T00:54:25;94844.66;;;6.23;87.29
62697;BME280;48761;42.680;23.312;2023-03-04T00:56:51;94844.13;;;6.16;86.51
62697;BME280;48761;42.680;23.312;2023-03-04T00:59:17;94842.41;;;6.15;86.46
62697;BME280;48761;42.680;23.312;2023-03-04T01:01:43;94843.78;;;6.23;86.58
62697;BME280;48761;42.680;23.312;2023-03-04T01:04:09;94808.25;;;5.94;86.18
62697;BME280;48761;42.680;23.312;2023-03-04T01:06:35;94841.41;;;6.18;86.05
62697;BME280;48761;42.680;23.312;2023-03-04T01:09:01;94844.13;;;6.16;86.11
62697;BME280;48761;42.680;23.312;2023-03-04T01:11:27;94803.59;;;6.00;86.22
62697;BME280;48761;42.680;23.312;2023-03-04T01:13:53;94819.28;;;6.03;85.91
62697;BME280;48761;42.680;23.312;2023-03-04T01:16:19;94846.81;;;6.15;85.37
62697;BME280;48761;42.680;23.312;2023-03-04T01:18:45;94813.63;;;6.11;85.13
62697;BME280;48761;42.680;23.312;2023-03-04T01:21:11;94816.53;;;6.04;84.61
62697;BME280;48761;42.680;23.312;2023-03-04T01:23:37;94835.59;;;6.11;84.66
62697;BME280;48761;42.680;23.312;2023-03-04T01:26:03;94801.94;;;5.81;85.08
62697;BME280;48761;42.680;23.312;2023-03-04T01:28:29;94806.63;;;5.92;85.32
62697;BME280;48761;42.680;23.312;2023-03-04T01:30:56;94795.81;;;5.97;84.83
62697;BME280;48761;42.680;23.312;2023-03-04T01:33:22;94821.44;;;6.12;84.23
62697;BME280;48761;42.680;23.312;2023-03-04T01:35:48;94823.31;;;6.10;84.79
62697;BME280;48761;42.680;23.312;2023-03-04T01:38:14;94821.63;;;6.09;84.66
62697;BME280;48761;42.680;23.312;2023-03-04T01:40:40;94821.91;;;6.03;84.45
62697;BME280;48761;42.680;23.312;2023-03-04T01:43:06;94811.84;;;5.93;85.21
62697;BME280;48761;42.680;23.312;2023-03-04T01:45:32;94793.56;;;5.72;85.50
62697;BME280;48761;42.680;23.312;2023-03-04T01:47:58;94813.94;;;5.69;86.16
62697;BME280;48761;42.680;23.312;2023-03-04T01:50:31;94810.16;;;5.75;86.17
62697;BME280;48761;42.680;23.312;2023-03-04T01:52:57;94783.31;;;5.66;85.56
62697;BME280;48761;42.680;23.312;2023-03-04T01:55:24;94792.22;;;5.81;85.55
62697;BME280;48761;42.680;23.312;2023-03-04T01:57:51;94796.94;;;5.92;85.22
62697;BME280;48761;42.680;23.312;2023-03-04T02:02:49;94770.69;;;5.73;85.02
62697;BME280;48761;42.680;23.312;2023-03-04T02:05:15;94778.25;;;5.79;84.95
62697;BME280;48761;42.680;23.312;2023-03-04T02:07:41;94794.44;;;5.89;85.02
62697;BME280;48761;42.680;23.312;2023-03-04T02:10:09;94805.31;;;6.01;85.14
62697;BME280;48761;42.680;23.312;2023-03-04T02:12:35;94782.28;;;5.87;84.70
62697;BME280;48761;42.680;23.312;2023-03-04T02:15:01;94810.59;;;6.01;84.73
62697;BME280;48761;42.680;23.312;2023-03-04T02:17:27;94802.34;;;6.07;84.63
62697;BME280;48761;42.680;23.312;2023-03-04T02:22:50;94797.88;;;5.91;84.49
62697;BME280;48761;42.680;23.312;2023-03-04T02:25:25;94752.00;;;5.60;84.84
62697;BME280;48761;42.680;23.312;2023-03-04T02:27:53;94780.81;;;5.81;84.62
62697;BME280;48761;42.680;23.312;2023-03-04T02:30:20;94742.97;;;5.64;84.36
62697;BME280;48761;42.680;23.312;2023-03-04T02:32:48;94736.22;;;5.76;83.98
62697;BME280;48761;42.680;23.312;2023-03-04T02:35:18;94739.44;;;5.47;84.46
62697;BME280;48761;42.680;23.312;2023-03-04T02:37:44;94750.28;;;5.59;84.48
62697;BME280;48761;42.680;23.312;2023-03-04T02:40:17;94766.25;;;5.74;84.75
62697;BME280;48761;42.680;23.312;2023-03-04T02:42:46;94779.25;;;5.77;84.43
62697;BME280;48761;42.680;23.312;2023-03-04T02:45:41;94781.75;;;5.80;84.70
62697;BME280;48761;42.680;23.312;2023-03-04T02:48:08;94777.19;;;5.83;84.82
62697;BME280;48761;42.680;23.312;2023-03-04T02:50:38;94764.22;;;5.79;84.18
62697;BME280;48761;42.680;23.312;2023-03-04T02:53:05;94778.81;;;5.86;84.11
62697;BME280;48761;42.680;23.312;2023-03-04T02:55:32;94719.13;;;5.49;84.06
62697;BME280;48761;42.680;23.312;2023-03-04T02:57:58;94777.09;;;5.85;83.88
62697;BME280;48761;42.680;23.312;2023-03-04T03:00:25;94713.31;;;5.43;84.06
62697;BME280;48761;42.680;23.312;2023-03-04T03:02:51;94758.50;;;5.70;83.96
62697;BME280;48761;42.680;23.312;2023-03-04T03:05:17;94730.56;;;5.66;83.38
62697;BME280;48761;42.680;23.312;2023-03-04T03:07:43;94754.44;;;5.81;83.17
62697;BME280;48761;42.680;23.312;2023-03-04T03:10:10;94731.19;;;5.54;83.03
62697;BME280;48761;42.680;23.312;2023-03-04T03:12:37;94743.47;;;5.55;83.41
62697;BME280;48761;42.680;23.312;2023-03-04T03:15:03;94726.50;;;5.43;83.61
62697;BME280;48761;42.680;23.312;2023-03-04T03:17:30;94729.81;;;5.46;84.00
62697;BME280;48761;42.680;23.312;2023-03-04T03:19:59;94762.22;;;5.66;83.76
62697;BME280;48761;42.680;23.312;2023-03-04T03:22:30;94790.53;;;5.80;84.16
62697;BME280;48761;42.680;23.312;2023-03-04T03:24:58;94786.34;;;5.76;83.93
62697;BME280;48761;42.680;23.312;2023-03-04T03:27:25;94725.19;;;5.34;83.79
62697;BME280;48761;42.680;23.312;2023-03-04T03:29:56;94786.41;;;5.75;84.07
62697;BME280;48761;42.680;23.312;2023-03-04T03:32:27;94718.66;;;5.23;84.36
62697;BME280;48761;42.680;23.312;2023-03-04T03:34:53;94711.72;;;5.22;84.41
62697;BME280;48761;42.680;23.312;2023-03-04T03:37:19;94757.75;;;5.51;84.40
62697;BME280;48761;42.680;23.312;2023-03-04T03:39:46;94711.38;;;5.29;84.24
62697;BME280;48761;42.680;23.312;2023-03-04T03:42:13;94695.75;;;5.25;84.22
62697;BME280;48761;42.680;23.312;2023-03-04T03:44:39;94707.31;;;5.23;84.07
62697;BME280;48761;42.680;23.312;2023-03-04T03:47:05;94750.91;;;5.46;84.25
62697;BME280;48761;42.680;23.312;2023-03-04T03:49:31;94717.91;;;5.21;84.30
62697;BME280;48761;42.680;23.312;2023-03-04T03:52:03;94720.72;;;5.18;84.29
62697;BME280;48761;42.680;23.312;2023-03-04T03:54:35;94737.53;;;5.33;84.23
62697;BME280;48761;42.680;23.312;2023-03-04T03:57:10;94742.72;;;5.35;84.32
62697;BME280;48761;42.680;23.312;2023-03-04T03:59:45;94709.56;;;5.13;84.28
62697;BME280;48761;42.680;23.312;2023-03-04T04:02:12;94713.88;;;5.14;84.15
62697;BME280;48761;42.680;23.312;2023-03-04T04:04:38;94707.94;;;5.10;84.40
62697;BME280;48761;42.680;23.312;2023-03-04T04:07:08;94736.44;;;5.37;84.50
62697;BME280;48761;42.680;23.312;2023-03-04T04:09:35;94702.47;;;5.13;84.28
62697;BME280;48761;42.680;23.312;2023-03-04T04:12:04;94701.78;;;5.10;84.02
62697;BME280;48761;42.680;23.312;2023-03-04T04:14:30;94723.78;;;5.26;83.80
62697;BME280;48761;42.680;23.312;2023-03-04T04:16:59;94711.56;;;5.25;83.84
62697;BME280;48761;42.680;23.312;2023-03-04T04:19:29;94720.16;;;5.29;83.85
62697;BME280;48761;42.680;23.312;2023-03-04T04:22:00;94696.38;;;5.13;82.96
62697;BME280;48761;42.680;23.312;2023-03-04T04:24:26;94698.41;;;5.08;83.01
62697;BME280;48761;42.680;23.312;2023-03-04T04:26:58;94695.00;;;5.06;83.25
62697;BME280;48761;42.680;23.312;2023-03-04T04:29:24;94699.31;;;5.07;83.39
62697;BME280;48761;42.680;23.312;2023-03-04T04:31:51;94758.75;;;5.48;83.18
62697;BME280;48761;42.680;23.312;2023-03-04T04:34:17;94734.34;;;5.26;83.01
62697;BME280;48761;42.680;23.312;2023-03-04T04:36:43;94708.75;;;5.11;83.32
62697;BME280;48761;42.680;23.312;2023-03-04T04:39:09;94732.66;;;5.25;82.97
62697;BME280;48761;42.680;23.312;2023-03-04T04:41:38;94759.91;;;5.42;82.94
62697;BME280;48761;42.680;23.312;2023-03-04T04:44:05;94764.28;;;5.43;82.92
62697;BME280;48761;42.680;23.312;2023-03-04T04:46:31;94727.03;;;5.32;82.96
62697;BME280;48761;42.680;23.312;2023-03-04T04:48:57;94758.19;;;5.41;82.50
62697;BME280;48761;42.680;23.312;2023-03-04T04:51:23;94758.38;;;5.38;82.63
62697;BME280;48761;42.680;23.312;2023-03-04T04:53:49;94756.00;;;5.33;82.82
62697;BME280;48761;42.680;23.312;2023-03-04T04:56:19;94759.69;;;5.29;82.83
62697;BME280;48761;42.680;23.312;2023-03-04T04:58:47;94717.28;;;4.98;83.01
62697;BME280;48761;42.680;23.312;2023-03-04T05:01:14;94740.94;;;5.18;82.82
62697;BME280;48761;42.680;23.312;2023-03-04T05:03:41;94708.59;;;4.96;82.32
62697;BME280;48761;42.680;23.312;2023-03-04T05:06:09;94748.75;;;5.19;82.40
62697;BME280;48761;42.680;23.312;2023-03-04T05:08:35;94759.31;;;5.19;82.63
62697;BME280;48761;42.680;23.312;2023-03-04T05:11:02;94752.00;;;5.07;82.52
62697;BME280;48761;42.680;23.312;2023-03-04T05:13:28;94754.50;;;5.10;82.74
62697;BME280;48761;42.680;23.312;2023-03-04T05:15:56;94773.81;;;5.10;83.06
62697;BME280;48761;42.680;23.312;2023-03-04T05:18:23;94767.34;;;4.98;83.65
62697;BME280;48761;42.680;23.312;2023-03-04T05:20:51;94735.56;;;4.84;83.80
62697;BME280;48761;42.680;23.312;2023-03-04T05:23:18;94785.66;;;5.19;83.74
62697;BME280;48761;42.680;23.312;2023-03-04T05:25:44;94716.44;;;4.80;84.29
62697;BME280;48761;42.680;23.312;2023-03-04T05:28:10;94783.03;;;5.37;83.65
62697;BME280;48761;42.680;23.312;2023-03-04T05:30:36;94777.47;;;5.25;83.86
62697;BME280;48761;42.680;23.312;2023-03-04T05:33:02;94782.03;;;5.40;83.77
62697;BME280;48761;42.680;23.312;2023-03-04T05:35:28;94791.16;;;5.32;83.83
62697;BME280;48761;42.680;23.312;2023-03-04T05:37:54;94803.19;;;5.38;83.96
62697;BME280;48761;42.680;23.312;2023-03-04T05:40:21;94738.31;;;5.00;84.69
62697;BME280;48761;42.680;23.312;2023-03-04T05:42:47;94746.25;;;4.98;84.47
62697;BME280;48761;42.680;23.312;2023-03-04T05:45:14;94800.22;;;5.26;85.00
62697;BME280;48761;42.680;23.312;2023-03-04T05:47:43;94736.91;;;4.92;85.57
62697;BME280;48761;42.680;23.312;2023-03-04T05:50:12;94765.97;;;5.26;84.81
62697;BME280;48761;42.680;23.312;2023-03-04T05:52:39;94806.91;;;5.52;83.26
62697;BME280;48761;42.680;23.312;2023-03-04T05:55:06;94745.97;;;5.22;82.31
62697;BME280;48761;42.680;23.312;2023-03-04T05:57:33;94809.16;;;5.59;82.52
62697;BME280;48761;42.680;23.312;2023-03-04T06:00:00;94746.44;;;5.13;83.02
62697;BME280;48761;42.680;23.312;2023-03-04T06:02:29;94774.50;;;5.32;82.58
62697;BME280;48761;42.680;23.312;2023-03-04T06:04:56;94780.25;;;5.40;82.85
62697;BME280;48761;42.680;23.312;2023-03-04T06:07:22;94793.72;;;5.52;82.90
62697;BME280;48761;42.680;23.312;2023-03-04T06:09:48;94813.56;;;5.59;82.92
62697;BME280;48761;42.680;23.312;2023-03-04T06:12:14;94821.31;;;5.80;82.57
62697;BME280;48761;42.680;23.312;2023-03-04T06:14:40;94817.44;;;5.69;82.86
62697;BME280;48761;42.680;23.312;2023-03-04T06:17:06;94827.06;;;5.70;83.45
62697;BME280;48761;42.680;23.312;2023-03-04T06:19:32;94772.63;;;5.34;83.79
62697;BME280;48761;42.680;23.312;2023-03-04T06:21:59;94828.06;;;5.32;85.36
62697;BME280;48761;42.680;23.312;2023-03-04T06:24:26;94768.53;;;4.73;86.77
62697;BME280;48761;42.680;23.312;2023-03-04T06:26:52;94805.31;;;4.94;87.21
62697;BME280;48761;42.680;23.312;2023-03-04T06:29:18;94778.78;;;4.79;86.83
62697;BME280;48761;42.680;23.312;2023-03-04T06:31:45;94823.19;;;5.42;86.28
62697;BME280;48761;42.680;23.312;2023-03-04T06:34:11;94818.06;;;5.57;85.53
62697;BME280;48761;42.680;23.312;2023-03-04T06:36:37;94808.53;;;5.36;85.30
62697;BME280;48761;42.680;23.312;2023-03-04T06:39:04;94833.13;;;5.55;85.66
62697;BME280;48761;42.680;23.312;2023-03-04T06:41:30;94782.53;;;5.11;86.10
62697;BME280;48761;42.680;23.312;2023-03-04T06:43:56;94837.47;;;5.38;87.09
62697;BME280;48761;42.680;23.312;2023-03-04T06:46:22;94826.47;;;5.47;87.04
62697;BME280;48761;42.680;23.312;2023-03-04T06:48:48;94781.53;;;5.13;86.71
62697;BME280;48761;42.680;23.312;2023-03-04T06:51:15;94774.50;;;5.14;85.97
62697;BME280;48761;42.680;23.312;2023-03-04T06:53:41;94810.72;;;5.64;84.62
62697;BME280;48761;42.680;23.312;2023-03-04T06:56:10;94838.53;;;5.52;85.20
62697;BME280;48761;42.680;23.312;2023-03-04T06:58:38;94841.41;;;5.65;84.92
62697;BME280;48761;42.680;23.312;2023-03-04T07:03:42;94847.56;;;5.83;82.73
62697;BME280;48761;42.680;23.312;2023-03-04T07:06:15;94810.50;;;5.51;82.91
62697;BME280;48761;42.680;23.312;2023-03-04T07:08:42;94826.59;;;5.62;83.17
62697;BME280;48761;42.680;23.312;2023-03-04T07:11:10;94819.78;;;5.58;82.83
62697;BME280;48761;42.680;23.312;2023-03-04T07:13:36;94841.81;;;5.75;82.80
62697;BME280;48761;42.680;23.312;2023-03-04T07:16:04;94817.44;;;5.52;82.80
62697;BME280;48761;42.680;23.312;2023-03-04T07:18:30;94848.09;;;5.72;83.13
62697;BME280;48761;42.680;23.312;2023-03-04T07:20:56;94831.19;;;5.58;83.12
62697;BME280;48761;42.680;23.312;2023-03-04T07:23:22;94857.47;;;5.78;82.42
62697;BME280;48761;42.680;23.312;2023-03-04T07:25:49;94834.22;;;5.68;82.05
62697;BME280;48761;42.680;23.312;2023-03-04T07:28:16;94850.81;;;5.88;82.23
62697;BME280;48761;42.680;23.312;2023-03-04T07:30:42;94834.03;;;5.71;81.93
62697;BME280;48761;42.680;23.312;2023-03-04T07:33:09;94827.97;;;5.87;81.42
62697;BME280;48761;42.680;23.312;2023-03-04T07:35:35;94785.19;;;5.46;81.80
62697;BME280;48761;42.680;23.312;2023-03-04T07:38:01;94855.75;;;5.94;81.73
62697;BME280;48761;42.680;23.312;2023-03-04T07:40:27;94816.50;;;5.88;81.75
62697;BME280;48761;42.680;23.312;2023-03-04T07:42:56;94785.34;;;5.61;80.96
62697;BME280;48761;42.680;23.312;2023-03-04T07:45:24;94848.66;;;5.79;81.74
62697;BME280;48761;42.680;23.312;2023-03-04T07:47:50;94844.28;;;5.78;82.05
62697;BME280;48761;42.680;23.312;2023-03-04T07:50:17;94821.34;;;5.62;81.72
62697;BME280;48761;42.680;23.312;2023-03-04T07:52:46;94786.63;;;5.36;81.99
62697;BME280;48761;42.680;23.312;2023-03-04T07:55:14;94808.09;;;5.64;82.13
62697;BME280;48761;42.680;23.312;2023-03-04T07:57:44;94820.84;;;5.71;81.03
62697;BME280;48761;42.680;23.312;2023-03-04T08:00:13;94824.09;;;5.77;81.54
62697;BME280;48761;42.680;23.312;2023-03-04T08:02:39;94851.84;;;6.02;81.24
62697;BME280;48761;42.680;23.312;2023-03-04T08:05:06;94845.50;;;6.24;80.55
62697;BME280;48761;42.680;23.312;2023-03-04T08:07:32;94849.78;;;6.43;79.74
62697;BME280;48761;42.680;23.312;2023-03-04T08:09:58;94815.72;;;6.38;79.12
62697;BME280;48761;42.680;23.312;2023-03-04T08:12:25;94842.81;;;6.58;78.70
62697;BME280;48761;42.680;23.312;2023-03-04T08:14:51;94808.34;;;6.11;78.24
62697;BME280;48761;42.680;23.312;2023-03-04T08:17:17;94831.34;;;6.25;78.94
62697;BME280;48761;42.680;23.312;2023-03-04T08:19:44;94806.19;;;5.83;79.64
62697;BME280;48761;42.680;23.312;2023-03-04T08:22:10;94819.94;;;5.72;79.84
62697;BME280;48761;42.680;23.312;2023-03-04T08:24:36;94831.88;;;5.80;80.11
62697;BME280;48761;42.680;23.312;2023-03-04T08:27:04;94814.34;;;5.79;79.95
62697;BME280;48761;42.680;23.312;2023-03-04T08:29:30;94829.22;;;5.98;79.22
62697;BME280;48761;42.680;23.312;2023-03-04T08:31:58;94804.56;;;5.81;79.60
62697;BME280;48761;42.680;23.312;2023-03-04T08:34:26;94817.19;;;6.10;78.58
62697;BME280;48761;42.680;23.312;2023-03-04T08:36:53;94816.00;;;6.15;78.33
62697;BME280;48761;42.680;23.312;2023-03-04T08:39:19;94808.00;;;6.17;78.15
62697;BME280;48761;42.680;23.312;2023-03-04T08:41:46;94831.81;;;6.33;77.80
62697;BME280;48761;42.680;23.312;2023-03-04T08:44:15;94807.63;;;6.07;78.44
62697;BME280;48761;42.680;23.312;2023-03-04T08:46:42;94773.97;;;5.77;77.85
62697;BME280;48761;42.680;23.312;2023-03-04T08:49:10;94835.34;;;6.16;78.29
62697;BME280;48761;42.680;23.312;2023-03-04T08:51:37;94830.47;;;6.08;78.58
62697;BME280;48761;42.680;23.312;2023-03-04T08:54:03;94806.72;;;5.90;78.70
62697;BME280;48761;42.680;23.312;2023-03-04T08:56:30;94754.00;;;5.55;78.67
62697;BME280;48761;42.680;23.312;2023-03-04T08:58:56;94772.94;;;5.63;79.17
62697;BME280;48761;42.680;23.312;2023-03-04T09:01:24;94828.28;;;5.99;79.33
62697;BME280;48761;42.680;23.312;2023-03-04T09:03:50;94789.16;;;5.89;79.10
62697;BME280;48761;42.680;23.312;2023-03-04T09:06:18;94783.06;;;5.89;78.93
62697;BME280;48761;42.680;23.312;2023-03-04T09:08:46;94779.53;;;6.06;78.50
62697;BME280;48761;42.680;23.312;2023-03-04T09:11:13;94808.03;;;6.33;78.11
62697;BME280;48761;42.680;23.312;2023-03-04T09:13:39;94819.31;;;6.69;77.28
62697;BME280;48761;42.680;23.312;2023-03-04T09:16:11;94814.50;;;7.09;76.78
62697;BME280;48761;42.680;23.312;2023-03-04T09:18:38;94805.28;;;7.32;75.99
62697;BME280;48761;42.680;23.312;2023-03-04T09:21:12;94816.16;;;7.42;74.56
62697;BME280;48761;42.680;23.312;2023-03-04T09:23:38;94807.31;;;7.43;73.72
62697;BME280;48761;42.680;23.312;2023-03-04T09:28:39;94764.16;;;7.72;72.23
62697;BME280;48761;42.680;23.312;2023-03-04T09:31:12;94802.09;;;8.02;71.40
62697;BME280;48761;42.680;23.312;2023-03-04T09:33:53;94802.22;;;8.15;70.85
62697;BME280;48761;42.680;23.312;2023-03-04T09:36:22;94737.81;;;7.85;70.22
62697;BME280;48761;42.680;23.312;2023-03-04T09:38:58;94794.19;;;8.16;69.83
62697;BME280;48761;42.680;23.312;2023-03-04T09:41:46;94734.13;;;7.88;70.27
62697;BME280;48761;42.680;23.312;2023-03-04T09:44:30;94795.69;;;8.21;69.62
62697;BME280;48761;42.680;23.312;2023-03-04T09:47:05;94791.78;;;7.97;69.85
62697;BME280;48761;42.680;23.312;2023-03-04T09:49:33;94786.84;;;7.76;70.66
62697;BME280;48761;42.680;23.312;2023-03-04T09:53:06;94777.13;;;7.77;70.51
62697;BME280;48761;42.680;23.312;2023-03-04T09:55:20;94758.81;;;7.88;70.46
62697;BME280;48761;42.680;23.312;2023-03-04T10:01:30;94787.72;;;8.65;67.95
62697;BME280;48761;42.680;23.312;2023-03-04T10:04:13;94762.69;;;8.26;67.86
62697;BME280;48761;42.680;23.312;2023-03-04T10:06:44;94720.97;;;7.57;69.35
62697;BME280;48761;42.680;23.312;2023-03-04T10:09:42;94758.25;;;7.98;69.14
62697;BME280;48761;42.680;23.312;2023-03-04T10:12:15;94740.81;;;8.23;68.66
62697;BME280;48761;42.680;23.312;2023-03-04T10:15:00;94718.97;;;8.19;67.84
62697;BME280;48761;42.680;23.312;2023-03-04T10:17:36;94744.19;;;8.54;67.67
62697;BME280;48761;42.680;23.312;2023-03-04T10:20:26;94767.06;;;8.55;68.22
62697;BME280;48761;42.680;23.312;2023-03-04T10:23:32;94716.44;;;8.03;67.94
62697;BME280;48761;42.680;23.312;2023-03-04T10:26:41;94755.94;;;8.35;68.18
62697;BME280;48761;42.680;23.312;2023-03-04T10:29:22;94698.22;;;7.83;69.02
62697;BME280;48761;42.680;23.312;2023-03-04T10:31:58;94750.69;;;8.06;69.79
62697;BME280;48761;42.680;23.312;2023-03-04T10:34:24;94739.69;;;8.12;70.12
62697;BME280;48761;42.680;23.312;2023-03-04T10:37:05;94719.47;;;8.11;69.66
62697;BME280;48761;42.680;23.312;2023-03-04T10:39:33;94731.19;;;8.07;69.77
62697;BME280;48761;42.680;23.312;2023-03-04T10:42:22;94734.22;;;8.15;69.60
62697;BME280;48761;42.680;23.312;2023-03-04T10:44:56;94678.47;;;7.74;69.17
62697;BME280;48761;42.680;23.312;2023-03-04T10:47:29;94661.53;;;7.77;69.07
62697;BME280;48761;42.680;23.312;2023-03-04T10:50:01;94703.09;;;8.19;69.11
62697;BME280;48761;42.680;23.312;2023-03-04T10:52:34;94722.88;;;8.13;69.84
62697;BME280;48761;42.680;23.312;2023-03-04T10:55:22;94719.84;;;7.90;69.77
62697;BME280;48761;42.680;23.312;2023-03-04T10:58:10;94713.22;;;7.54;70.86
62697;BME280;48761;42.680;23.312;2023-03-04T11:00:41;94643.28;;;7.14;71.31
62697;BME280;48761;42.680;23.312;2023-03-04T11:05:45;94708.66;;;7.41;72.17
62697;BME280;48761;42.680;23.312;2023-03-04T11:08:19;94697.91;;;7.44;71.79
62697;BME280;48761;42.680;23.312;2023-03-04T11:10:49;94694.69;;;7.39;71.87
62697;BME280;48761;42.680;23.312;2023-03-04T11:13:20;94679.28;;;7.00;72.71
62697;BME280;48761;42.680;23.312;2023-03-04T11:18:52;94682.22;;;7.41;72.37
62697;BME280;48761;42.680;23.312;2023-03-04T11:21:22;94636.50;;;7.39;72.18
62697;BME280;48761;42.680;23.312;2023-03-04T11:23:59;94665.44;;;7.86;71.61
62697;BME280;48761;42.680;23.312;2023-03-04T11:26:45;94667.69;;;7.78;72.09
62697;BME280;48761;42.680;23.312;2023-03-04T11:29:32;94665.69;;;7.81;72.37
62697;BME280;48761;42.680;23.312;2023-03-04T11:32:20;94634.63;;;7.70;72.07
62697;BME280;48761;42.680;23.312;2023-03-04T11:35:20;94658.97;;;8.05;71.80
62697;BME280;48761;42.680;23.312;2023-03-04T11:41:40;94647.59;;;8.17;70.79
62697;BME280;48761;42.680;23.312;2023-03-04T11:44:13;94613.31;;;7.87;70.69
62697;BME280;48761;42.680;23.312;2023-03-04T11:55:33;94639.03;;;7.84;71.65
62697;BME280;48761;42.680;23.312;2023-03-04T11:58:38;94640.63;;;7.87;71.20
62697;BME280;48761;42.680;23.312;2023-03-04T12:10:43;94631.69;;;8.17;70.13
62697;BME280;48761;42.680;23.312;2023-03-04T12:19:52;94613.91;;;8.62;69.37
62697;BME280;48761;42.680;23.312;2023-03-04T12:22:43;94615.19;;;8.69;68.49
62697;BME280;48761;42.680;23.312;2023-03-04T12:25:24;94606.81;;;8.76;68.19
62697;BME280;48761;42.680;23.312;2023-03-04T12:28:25;94549.56;;;8.32;67.97
62697;BME280;48761;42.680;23.312;2023-03-04T12:46:35;94587.94;;;8.80;67.81
62697;BME280;48761;42.680;23.312;2023-03-04T12:55:20;94583.00;;;8.89;67.80
62697;BME280;48761;42.680;23.312;2023-03-04T12:57:48;94530.47;;;8.68;73.68
62697;BME280;48761;42.680;23.312;2023-03-04T13:03:46;94567.50;;;8.82;68.19
62697;BME280;48761;42.680;23.312;2023-03-04T13:16:50;94532.84;;;8.45;68.60
62697;BME280;48761;42.680;23.312;2023-03-04T13:19:45;94544.63;;;8.54;68.24
62697;BME280;48761;42.680;23.312;2023-03-04T13:41:15;94531.75;;;8.34;69.35
62697;BME280;48761;42.680;23.312;2023-03-04T13:43:55;94529.03;;;8.36;69.10
62697;BME280;48761;42.680;23.312;2023-03-04T13:54:05;94521.69;;;8.39;68.92
62697;BME280;48761;42.680;23.312;2023-03-04T13:56:47;94492.72;;;8.10;69.27
62697;BME280;48761;42.680;23.312;2023-03-04T14:04:39;94475.06;;;7.83;71.07
62697;BME280;48761;42.680;23.312;2023-03-04T14:07:35;94469.81;;;7.96;69.96
62697;BME280;48761;42.680;23.312;2023-03-04T14:12:54;94509.28;;;8.27;70.35
62697;BME280;48761;42.680;23.312;2023-03-04T14:15:26;94483.63;;;8.14;71.09
62697;BME280;48761;42.680;23.312;2023-03-04T14:23:31;94430.66;;;8.14;70.37
62697;BME280;48761;42.680;23.312;2023-03-04T14:26:13;94496.25;;;8.78;69.45
62697;BME280;48761;42.680;23.312;2023-03-04T14:28:46;94447.47;;;8.54;68.99
62697;BME280;48761;42.680;23.312;2023-03-04T14:31:25;94490.94;;;8.91;68.77
62697;BME280;48761;42.680;23.312;2023-03-04T14:33:57;94462.72;;;8.50;69.48
62697;BME280;48761;42.680;23.312;2023-03-04T14:36:24;94485.19;;;8.58;69.82
62697;BME280;48761;42.680;23.312;2023-03-04T14:38:57;94436.63;;;8.31;69.14
62697;BME280;48761;42.680;23.312;2023-03-04T14:41:30;94425.00;;;8.34;68.81
62697;BME280;48761;42.680;23.312;2023-03-04T14:46:54;94490.78;;;8.53;69.66
62697;BME280;48761;42.680;23.312;2023-03-04T14:49:22;94433.97;;;8.18;69.52
62697;BME280;48761;42.680;23.312;2023-03-04T14:51:51;94444.25;;;8.23;70.24
62697;BME280;48761;42.680;23.312;2023-03-04T14:54:38;94413.31;;;8.10;69.97
62697;BME280;48761;42.680;23.312;2023-03-04T14:57:27;94477.00;;;8.48;70.09
62697;BME280;48761;42.680;23.312;2023-03-04T15:00:25;94439.81;;;8.36;69.48
62697;BME280;48761;42.680;23.312;2023-03-04T15:06:22;94479.28;;;8.67;69.59
62697;BME280;48761;42.680;23.312;2023-03-04T15:19:44;94462.31;;;8.70;69.82
62697;BME280;48761;42.680;23.312;2023-03-04T15:30:33;94392.97;;;8.37;69.31
62697;BME280;48761;42.680;23.312;2023-03-04T15:33:09;94410.78;;;8.48;69.38
62697;BME280;48761;42.680;23.312;2023-03-04T15:35:37;94390.03;;;8.41;69.35
62697;BME280;48761;42.680;23.312;2023-03-04T15:38:27;94389.06;;;8.43;69.00
62697;BME280;48761;42.680;23.312;2023-03-04T15:41:23;94379.84;;;8.48;68.96
62697;BME280;48761;42.680;23.312;2023-03-04T15:43:55;94399.00;;;8.52;68.57
62697;BME280;48761;42.680;23.312;2023-03-04T15:46:26;94393.44;;;8.44;68.97